Time;durP1;ratioP1;P1;durP2;ratioP2;P2;SDS_P1;SDS_P2;PMS_P1;PMS_P2;Temp;Humidity;BMP_temperature;BMP_pressure;BME280_temperature;BME280_humidity;BME280_pressure;Samples;Min_cycle;Max_cycle;Signal;HPM_P1;HPM_P2
2022/10/12 00:02:11;;;;;;;1.55;0.80;;;;;;;;;;5022942;28;20036;-85
2022/10/12 00:04:37;;;;;;;0.20;0.10;;;;;;;;;;5017230;28;20037;-83
2022/10/12 00:07:03;;;;;;;0.20;0.10;;;;;;;;;;5026975;28;20045;-85
2022/10/12 00:09:29;;;;;;;0.20;0.10;;;;;;;;;;5011080;28;20550;-83
2022/10/12 00:11:55;;;;;;;0.20;0.10;;;;;;;;;;5022881;28;20123;-84
2022/10/12 00:14:21;;;;;;;0.20;0.10;;;;;;;;;;5026090;28;20049;-85
2022/10/12 00:16:47;;;;;;;0.20;0.10;;;;;;;;;;5028795;28;20055;-84
2022/10/12 00:19:13;;;;;;;0.20;0.10;;;;;;;;;;5019725;28;20055;-84
2022/10/12 00:21:41;;;;;;;0.20;0.10;;;;;;;;;;5005898;28;20577;-84
2022/10/12 00:24:07;;;;;;;0.20;0.10;;;;;;;;;;5003646;28;20041;-85
2022/10/12 00:26:33;;;;;;;0.20;0.10;;;;;;;;;;5020400;28;20036;-85
2022/10/12 00:29:03;;;;;;;0.20;0.10;;;;;;;;;;5007366;28;20087;-83
2022/10/12 00:31:29;;;;;;;0.50;0.15;;;;;;;;;;5032404;28;20070;-85
2022/10/12 00:33:55;;;;;;;0.20;0.10;;;;;;;;;;5036336;28;20047;-84
2022/10/12 00:36:31;;;;;;;0.20;0.10;;;;;;;;;;5018106;28;20128;-86
2022/10/12 00:38:57;;;;;;;0.20;0.10;;;;;;;;;;5034361;28;20041;-84
2022/10/12 00:41:25;;;;;;;0.20;0.10;;;;;;;;;;5037126;28;20411;-85
2022/10/12 00:43:51;;;;;;;0.20;0.10;;;;;;;;;;5024908;28;20430;-84
2022/10/12 00:46:23;;;;;;;0.20;0.10;;;;;;;;;;5020013;28;20131;-83
2022/10/12 00:49:05;;;;;;;0.20;0.10;;;;;;;;;;5022990;28;20588;-83
2022/10/12 00:51:31;;;;;;;0.20;0.10;;;;;;;;;;5034015;28;20040;-86
2022/10/12 00:54:03;;;;;;;0.20;0.10;;;;;;;;;;5022572;28;20049;-85
2022/10/12 00:56:30;;;;;;;0.20;0.10;;;;;;;;;;5021029;28;20048;-83
2022/10/12 00:58:57;;;;;;;0.20;0.10;;;;;;;;;;5037707;28;20068;-84
2022/10/12 01:01:24;;;;;;;0.20;0.10;;;;;;;;;;5023049;28;20269;-85
2022/10/12 01:03:50;;;;;;;0.20;0.10;;;;;;;;;;5004514;28;20050;-85
2022/10/12 01:06:16;;;;;;;0.20;0.10;;;;;;;;;;5035368;28;22239;-85
2022/10/12 01:08:43;;;;;;;0.20;0.10;;;;;;;;;;5008640;28;20076;-85
2022/10/12 01:11:09;;;;;;;0.20;0.10;;;;;;;;;;5025327;28;20051;-84
2022/10/12 01:13:35;;;;;;;0.20;0.10;;;;;;;;;;5027013;28;20401;-85
2022/10/12 01:16:06;;;;;;;0.20;0.10;;;;;;;;;;5010776;28;20593;-85
2022/10/12 01:18:48;;;;;;;0.20;0.10;;;;;;;;;;5027432;28;20037;-85
2022/10/12 01:21:20;;;;;;;0.20;0.10;;;;;;;;;;5038137;28;20044;-85
2022/10/12 01:24:06;;;;;;;0.52;0.32;;;;;;;;;;5039463;28;20574;-84
2022/10/12 01:26:39;;;;;;;0.20;0.10;;;;;;;;;;5040388;28;21030;-85
2022/10/12 01:29:08;;;;;;;0.20;0.10;;;;;;;;;;5041413;28;20048;-85
2022/10/12 01:31:52;;;;;;;0.20;0.10;;;;;;;;;;5040728;28;20586;-84
2022/10/12 01:34:25;;;;;;;0.20;0.10;;;;;;;;;;5025668;28;20029;-85
2022/10/12 01:36:53;;;;;;;0.20;0.10;;;;;;;;;;5024790;28;20040;-86
2022/10/12 01:39:19;;;;;;;0.20;0.10;;;;;;;;;;5027272;28;20051;-84
2022/10/12 01:41:53;;;;;;;0.20;0.10;;;;;;;;;;5021417;28;20051;-83
2022/10/12 01:44:20;;;;;;;0.20;0.10;;;;;;;;;;5023150;28;20123;-84
2022/10/12 01:46:46;;;;;;;0.20;0.10;;;;;;;;;;5020346;28;20104;-83
2022/10/12 01:49:13;;;;;;;0.20;0.10;;;;;;;;;;5041031;28;20094;-84
2022/10/12 01:51:48;;;;;;;0.20;0.10;;;;;;;;;;5024971;28;20604;-85
2022/10/12 01:54:20;;;;;;;0.20;0.10;;;;;;;;;;5027509;28;20048;-85
2022/10/12 01:56:56;;;;;;;0.20;0.10;;;;;;;;;;5027805;28;20076;-83
2022/10/12 01:59:31;;;;;;;0.20;0.10;;;;;;;;;;5041907;28;20041;-85
2022/10/12 02:02:12;;;;;;;0.20;0.10;;;;;;;;;;5032309;28;20033;-85
2022/10/12 02:04:44;;;;;;;0.20;0.10;;;;;;;;;;5025573;28;20036;-84
2022/10/12 02:07:13;;;;;;;0.20;0.10;;;;;;;;;;5029630;28;20035;-83
2022/10/12 02:09:40;;;;;;;0.20;0.10;;;;;;;;;;5027204;28;20052;-83
2022/10/12 02:12:10;;;;;;;0.20;0.10;;;;;;;;;;5008139;28;20240;-85
2022/10/12 02:14:47;;;;;;;0.20;0.10;;;;;;;;;;5044243;28;20044;-85
2022/10/12 02:17:14;;;;;;;0.20;0.10;;;;;;;;;;5024132;28;20041;-84
2022/10/12 02:19:43;;;;;;;0.20;0.10;;;;;;;;;;5027214;28;20124;-83
2022/10/12 02:22:09;;;;;;;0.20;0.10;;;;;;;;;;5027866;28;21343;-84
2022/10/12 02:24:38;;;;;;;0.20;0.10;;;;;;;;;;5041943;28;20044;-85
2022/10/12 02:27:05;;;;;;;0.20;0.10;;;;;;;;;;5023158;28;20124;-85
2022/10/12 02:29:42;;;;;;;0.20;0.10;;;;;;;;;;5035751;28;20656;-85
2022/10/12 02:32:14;;;;;;;0.20;0.10;;;;;;;;;;5024591;28;20048;-84
2022/10/12 02:34:45;;;;;;;0.20;0.10;;;;;;;;;;5019978;28;20099;-85
2022/10/12 02:37:11;;;;;;;0.20;0.10;;;;;;;;;;5024587;28;20072;-84
2022/10/12 02:39:58;;;;;;;0.20;0.10;;;;;;;;;;5021123;28;20143;-85
2022/10/12 02:42:26;;;;;;;0.20;0.10;;;;;;;;;;5022554;28;20111;-83
2022/10/12 02:44:53;;;;;;;0.20;0.10;;;;;;;;;;5032869;28;20041;-85
2022/10/12 02:47:20;;;;;;;0.20;0.10;;;;;;;;;;5029707;28;20049;-82
2022/10/12 02:49:47;;;;;;;0.20;0.10;;;;;;;;;;5035746;28;20044;-85
2022/10/12 02:52:13;;;;;;;0.20;0.10;;;;;;;;;;5028303;28;20494;-83
2022/10/12 02:54:40;;;;;;;0.20;0.10;;;;;;;;;;5030567;28;20045;-85
2022/10/12 02:57:06;;;;;;;0.20;0.10;;;;;;;;;;5027436;28;20131;-85
2022/10/12 02:59:32;;;;;;;0.20;0.10;;;;;;;;;;5042311;28;20041;-85
2022/10/12 03:01:58;;;;;;;0.20;0.10;;;;;;;;;;5025184;28;20685;-86
2022/10/12 03:04:24;;;;;;;0.20;0.10;;;;;;;;;;5027425;28;20503;-84
2022/10/12 03:06:50;;;;;;;0.20;0.10;;;;;;;;;;5026075;28;20064;-85
2022/10/12 03:09:16;;;;;;;0.20;0.10;;;;;;;;;;5014763;28;20041;-86
2022/10/12 03:11:45;;;;;;;0.20;0.10;;;;;;;;;;5010987;28;20322;-85
2022/10/12 03:14:11;;;;;;;0.20;0.10;;;;;;;;;;5023209;28;20963;-84
2022/10/12 03:16:38;;;;;;;0.20;0.10;;;;;;;;;;5026699;28;20033;-86
2022/10/12 03:19:04;;;;;;;0.20;0.10;;;;;;;;;;5028226;28;20495;-85
2022/10/12 03:21:30;;;;;;;0.20;0.10;;;;;;;;;;5012938;28;20037;-84
2022/10/12 03:23:56;;;;;;;0.20;0.10;;;;;;;;;;5014708;28;20047;-84
2022/10/12 03:26:22;;;;;;;0.20;0.10;;;;;;;;;;5025231;28;20119;-83
2022/10/12 03:28:48;;;;;;;0.20;0.10;;;;;;;;;;5027400;28;20043;-85
2022/10/12 03:31:14;;;;;;;0.20;0.10;;;;;;;;;;5023287;28;20036;-85
2022/10/12 03:33:40;;;;;;;0.22;0.17;;;;;;;;;;5013590;28;20615;-83
2022/10/12 03:36:06;;;;;;;0.20;0.10;;;;;;;;;;5021934;28;20083;-84
2022/10/12 03:38:32;;;;;;;0.20;0.10;;;;;;;;;;5028720;28;20411;-84
2022/10/12 03:40:58;;;;;;;0.20;0.10;;;;;;;;;;5040506;28;20070;-86
2022/10/12 03:43:24;;;;;;;0.20;0.10;;;;;;;;;;5017751;28;20083;-86
2022/10/12 03:45:51;;;;;;;0.20;0.10;;;;;;;;;;5022113;28;21404;-84
2022/10/12 03:48:17;;;;;;;0.20;0.10;;;;;;;;;;5020242;28;20048;-84
2022/10/12 03:50:47;;;;;;;0.20;0.10;;;;;;;;;;5025255;28;20041;-83
2022/10/12 03:53:13;;;;;;;0.20;0.10;;;;;;;;;;5030473;28;20098;-85
2022/10/12 03:55:39;;;;;;;0.20;0.10;;;;;;;;;;5011115;28;20052;-84
2022/10/12 03:58:05;;;;;;;0.20;0.10;;;;;;;;;;5031165;28;20303;-85
2022/10/12 04:00:31;;;;;;;0.20;0.10;;;;;;;;;;5013924;28;20140;-86
2022/10/12 04:02:58;;;;;;;0.20;0.20;;;;;;;;;;5015881;28;20043;-85
2022/10/12 04:05:24;;;;;;;0.20;0.10;;;;;;;;;;5015686;28;20040;-85
2022/10/12 04:07:50;;;;;;;0.20;0.10;;;;;;;;;;5014962;28;20075;-85
2022/10/12 04:10:16;;;;;;;0.20;0.10;;;;;;;;;;5030375;28;20657;-85
2022/10/12 04:12:42;;;;;;;0.20;0.10;;;;;;;;;;5024960;28;20500;-86
2022/10/12 04:15:08;;;;;;;0.20;0.10;;;;;;;;;;5014285;28;20479;-85
2022/10/12 04:17:35;;;;;;;0.20;0.10;;;;;;;;;;5032444;23;20061;-88
2022/10/12 04:20:01;;;;;;;0.20;0.10;;;;;;;;;;5018640;28;20077;-89
2022/10/12 04:22:27;;;;;;;0.20;0.10;;;;;;;;;;5012784;28;20032;-88
2022/10/12 04:24:53;;;;;;;0.20;0.10;;;;;;;;;;4988840;28;20068;-89
2022/10/12 04:27:19;;;;;;;0.20;0.10;;;;;;;;;;5007211;28;20041;-89
2022/10/12 04:29:45;;;;;;;0.20;0.10;;;;;;;;;;5008721;28;20636;-89
2022/10/12 04:32:11;;;;;;;0.20;0.10;;;;;;;;;;5025861;28;20041;-89
2022/10/12 04:34:37;;;;;;;0.20;0.10;;;;;;;;;;5010368;28;20056;-88
2022/10/12 04:37:04;;;;;;;0.20;0.10;;;;;;;;;;4995085;28;20641;-89
2022/10/12 04:39:30;;;;;;;0.20;0.17;;;;;;;;;;5009897;28;20407;-89
2022/10/12 04:41:56;;;;;;;0.20;0.10;;;;;;;;;;5014557;28;20037;-88
2022/10/12 04:44:22;;;;;;;0.20;0.10;;;;;;;;;;5016547;28;20037;-90
2022/10/12 04:46:48;;;;;;;0.20;0.10;;;;;;;;;;5012815;28;20084;-89
2022/10/12 04:49:15;;;;;;;0.20;0.10;;;;;;;;;;5014751;28;20060;-88
2022/10/12 04:51:41;;;;;;;0.20;0.10;;;;;;;;;;5015424;28;20515;-90
2022/10/12 04:54:09;;;;;;;0.60;0.28;;;;;;;;;;4995363;28;20041;-90
2022/10/12 04:56:35;;;;;;;0.20;0.10;;;;;;;;;;5014969;28;20609;-88
2022/10/12 04:59:01;;;;;;;0.20;0.10;;;;;;;;;;5000434;28;20738;-89
2022/10/12 05:01:27;;;;;;;0.20;0.10;;;;;;;;;;5001512;28;20037;-88
2022/10/12 05:03:53;;;;;;;0.20;0.10;;;;;;;;;;4999371;28;20080;-89
2022/10/12 05:06:19;;;;;;;0.20;0.10;;;;;;;;;;5000328;28;20060;-89
2022/10/12 05:08:45;;;;;;;0.20;0.10;;;;;;;;;;5015699;28;20041;-88
2022/10/12 05:11:11;;;;;;;0.20;0.10;;;;;;;;;;5017322;28;20209;-87
2022/10/12 05:13:37;;;;;;;0.20;0.10;;;;;;;;;;5015738;28;20038;-88
2022/10/12 05:16:03;;;;;;;0.20;0.10;;;;;;;;;;5000785;28;20037;-88
2022/10/12 05:18:29;;;;;;;0.20;0.10;;;;;;;;;;4999459;28;20040;-88
2022/10/12 05:20:55;;;;;;;0.20;0.10;;;;;;;;;;5005440;28;20149;-87
2022/10/12 05:23:30;;;;;;;0.20;0.10;;;;;;;;;;5002346;28;20108;-88
2022/10/12 05:25:56;;;;;;;0.20;0.10;;;;;;;;;;5017418;28;20037;-88
2022/10/12 05:28:23;;;;;;;0.20;0.10;;;;;;;;;;5004927;28;20076;-88
2022/10/12 05:30:50;;;;;;;0.20;0.10;;;;;;;;;;4998832;28;20128;-88
2022/10/12 05:33:16;;;;;;;0.20;0.10;;;;;;;;;;5032811;28;20072;-89
2022/10/12 05:35:43;;;;;;;0.20;0.10;;;;;;;;;;5015659;28;20045;-89
2022/10/12 05:38:09;;;;;;;0.20;0.10;;;;;;;;;;5022776;28;20068;-87
2022/10/12 05:40:36;;;;;;;0.20;0.10;;;;;;;;;;4999150;28;20041;-88
2022/10/12 05:43:02;;;;;;;0.20;0.10;;;;;;;;;;4995695;28;20048;-88
2022/10/12 05:45:28;;;;;;;0.20;0.10;;;;;;;;;;5016042;28;20044;-88
2022/10/12 05:47:54;;;;;;;0.20;0.10;;;;;;;;;;5011344;28;20211;-88
2022/10/12 05:50:23;;;;;;;0.20;0.20;;;;;;;;;;5017013;28;20127;-88
2022/10/12 05:52:49;;;;;;;0.20;0.10;;;;;;;;;;5020444;28;20037;-89
2022/10/12 05:55:15;;;;;;;0.20;0.10;;;;;;;;;;5007540;28;20064;-88
2022/10/12 05:57:41;;;;;;;0.20;0.10;;;;;;;;;;5022477;28;20041;-90
2022/10/12 06:00:08;;;;;;;0.20;0.15;;;;;;;;;;5016999;28;20033;-92
2022/10/12 06:02:34;;;;;;;0.20;0.10;;;;;;;;;;5021651;28;20593;-87
2022/10/12 06:05:01;;;;;;;0.20;0.10;;;;;;;;;;5003775;28;20048;-90
2022/10/12 06:07:27;;;;;;;0.20;0.10;;;;;;;;;;5017793;28;20037;-92
2022/10/12 06:09:53;;;;;;;0.20;0.10;;;;;;;;;;5023803;28;20041;-87
2022/10/12 06:12:19;;;;;;;0.20;0.10;;;;;;;;;;5015554;28;20047;-87
2022/10/12 06:14:45;;;;;;;0.20;0.10;;;;;;;;;;5017682;28;20171;-87
2022/10/12 06:17:11;;;;;;;0.20;0.10;;;;;;;;;;5023699;28;20479;-90
2022/10/12 06:19:37;;;;;;;0.20;0.20;;;;;;;;;;5004561;28;20034;-87
2022/10/12 06:22:03;;;;;;;0.20;0.10;;;;;;;;;;5003495;28;20036;-87
2022/10/12 06:24:30;;;;;;;0.20;0.10;;;;;;;;;;5008519;28;20094;-87
2022/10/12 06:26:56;;;;;;;0.20;0.10;;;;;;;;;;5018926;28;20032;-88
2022/10/12 06:29:22;;;;;;;0.20;0.20;;;;;;;;;;5016399;28;20519;-89
2022/10/12 06:31:49;;;;;;;0.40;0.30;;;;;;;;;;5020266;28;20072;-89
2022/10/12 06:34:15;;;;;;;0.20;0.10;;;;;;;;;;5035635;28;20037;-88
2022/10/12 06:36:42;;;;;;;0.20;0.10;;;;;;;;;;5002764;28;20076;-89
2022/10/12 06:39:08;;;;;;;0.20;0.10;;;;;;;;;;5017891;28;20040;-88
2022/10/12 06:41:35;;;;;;;0.20;0.10;;;;;;;;;;5016721;28;20048;-89
2022/10/12 06:44:01;;;;;;;0.57;0.20;;;;;;;;;;4997937;28;20037;-88
2022/10/12 06:46:27;;;;;;;0.20;0.10;;;;;;;;;;4999910;28;20090;-88
2022/10/12 06:48:53;;;;;;;0.20;0.10;;;;;;;;;;4993703;28;20112;-87
2022/10/12 06:51:19;;;;;;;0.20;0.10;;;;;;;;;;5004311;28;20036;-89
2022/10/12 06:53:45;;;;;;;0.20;0.10;;;;;;;;;;5002969;28;20034;-90
2022/10/12 06:56:11;;;;;;;0.20;0.10;;;;;;;;;;5006004;28;20059;-88
2022/10/12 06:58:38;;;;;;;0.20;0.10;;;;;;;;;;5017751;28;20468;-90
2022/10/12 07:01:05;;;;;;;0.20;0.20;;;;;;;;;;5019481;28;20106;-87
2022/10/12 07:03:31;;;;;;;0.20;0.10;;;;;;;;;;5033136;28;20090;-88
2022/10/12 07:06:17;;;;;;;0.20;0.10;;;;;;;;;;5017064;28;20160;-89
2022/10/12 07:08:43;;;;;;;0.20;0.10;;;;;;;;;;5022010;28;20063;-88
2022/10/12 07:11:10;;;;;;;0.20;0.10;;;;;;;;;;5006863;28;20261;-88
2022/10/12 07:13:37;;;;;;;0.20;0.10;;;;;;;;;;5035010;28;20124;-89
2022/10/12 07:16:03;;;;;;;0.20;0.00;;;;;;;;;;5010978;28;20167;-89
2022/10/12 07:18:29;;;;;;;0.20;0.10;;;;;;;;;;5021449;28;20955;-89
2022/10/12 07:20:58;;;;;;;0.20;0.10;;;;;;;;;;5009247;28;20511;-89
2022/10/12 07:23:24;;;;;;;0.20;0.10;;;;;;;;;;5008450;28;20043;-88
2022/10/12 07:25:52;;;;;;;0.20;0.10;;;;;;;;;;5039813;28;20051;-88
2022/10/12 07:28:18;;;;;;;0.20;0.10;;;;;;;;;;5025573;28;20511;-89
2022/10/12 07:30:44;;;;;;;0.20;0.20;;;;;;;;;;5023783;28;20052;-88
2022/10/12 07:33:10;;;;;;;0.20;0.10;;;;;;;;;;5023348;28;20049;-90
2022/10/12 07:35:37;;;;;;;0.20;0.10;;;;;;;;;;5017059;28;20052;-89
2022/10/12 07:38:03;;;;;;;0.20;0.10;;;;;;;;;;5018489;28;20411;-91
2022/10/12 07:40:29;;;;;;;0.20;0.10;;;;;;;;;;5021796;28;20662;-89
2022/10/12 07:42:55;;;;;;;0.20;0.10;;;;;;;;;;5023278;28;20468;-88
2022/10/12 07:45:22;;;;;;;0.47;0.30;;;;;;;;;;5003477;28;20039;-90
2022/10/12 07:47:48;;;;;;;0.20;0.10;;;;;;;;;;5024029;28;20053;-89
2022/10/12 07:50:14;;;;;;;0.20;0.10;;;;;;;;;;5023673;28;20036;-88
2022/10/12 07:52:40;;;;;;;0.20;0.10;;;;;;;;;;5039404;28;20133;-90
2022/10/12 07:55:07;;;;;;;0.20;0.10;;;;;;;;;;5041382;28;20041;-88
2022/10/12 07:57:33;;;;;;;0.20;0.10;;;;;;;;;;5021903;28;20044;-87
2022/10/12 07:59:59;;;;;;;0.20;0.10;;;;;;;;;;5008574;28;20560;-87
2022/10/12 08:02:25;;;;;;;0.20;0.10;;;;;;;;;;5006301;28;20729;-88
2022/10/12 08:04:51;;;;;;;0.20;0.10;;;;;;;;;;5010040;28;20041;-88
2022/10/12 08:07:18;;;;;;;0.77;0.77;;;;;;;;;;5008188;28;20070;-87
2022/10/12 08:09:44;;;;;;;0.20;0.10;;;;;;;;;;5022326;28;20033;-86
2022/10/12 08:12:10;;;;;;;0.20;0.10;;;;;;;;;;5020100;28;20047;-88
2022/10/12 08:14:36;;;;;;;0.20;0.10;;;;;;;;;;5033007;28;20045;-90
2022/10/12 08:17:04;;;;;;;0.20;0.10;;;;;;;;;;5006252;28;20041;-88
2022/10/12 08:19:30;;;;;;;0.20;0.10;;;;;;;;;;5031559;28;20430;-89
2022/10/12 08:21:56;;;;;;;0.20;0.10;;;;;;;;;;5001759;28;20192;-88
2022/10/12 08:24:22;;;;;;;0.20;0.10;;;;;;;;;;5020270;28;20037;-89
2022/10/12 08:26:48;;;;;;;0.20;0.10;;;;;;;;;;5020492;28;20057;-89
2022/10/12 08:29:14;;;;;;;0.20;0.10;;;;;;;;;;5019553;28;20124;-87
2022/10/12 08:31:40;;;;;;;0.20;0.10;;;;;;;;;;5008546;28;20037;-87
2022/10/12 08:34:07;;;;;;;0.20;0.10;;;;;;;;;;5007759;28;20525;-88
2022/10/12 08:36:33;;;;;;;0.20;0.10;;;;;;;;;;5005424;28;20037;-88
2022/10/12 08:38:59;;;;;;;0.20;0.10;;;;;;;;;;5021257;28;20737;-89
2022/10/12 08:41:37;;;;;;;0.20;0.10;;;;;;;;;;5009359;28;20949;-88
2022/10/12 08:44:22;;;;;;;0.20;0.10;;;;;;;;;;5023757;28;20129;-90
2022/10/12 08:46:48;;;;;;;0.20;0.10;;;;;;;;;;5018269;28;20038;-89
2022/10/12 08:49:19;;;;;;;0.20;0.10;;;;;;;;;;5021523;28;20029;-92
2022/10/12 08:51:51;;;;;;;0.20;0.10;;;;;;;;;;5036581;28;20033;-88
2022/10/12 08:54:19;;;;;;;0.20;0.10;;;;;;;;;;5019924;28;20046;-88
2022/10/12 08:56:45;;;;;;;0.20;0.10;;;;;;;;;;5037906;28;20133;-88
2022/10/12 08:59:12;;;;;;;0.20;0.10;;;;;;;;;;5017970;28;20044;-89
2022/10/12 09:01:57;;;;;;;0.30;0.30;;;;;;;;;;5021532;28;20056;-88
2022/10/12 09:04:40;;;;;;;0.20;0.10;;;;;;;;;;5035565;28;20479;-89
2022/10/12 09:07:11;;;;;;;0.20;0.10;;;;;;;;;;5043088;28;20029;-88
2022/10/12 09:09:52;;;;;;;0.20;0.10;;;;;;;;;;5027520;28;20037;-89
2022/10/12 09:12:25;;;;;;;0.93;0.47;;;;;;;;;;5020928;28;20051;-88
2022/10/12 09:14:51;;;;;;;;;;;;;;;;;;5023829;28;20051;-90
2022/10/12 09:17:20;;;;;;;0.20;0.20;;;;;;;;;;5023613;28;20445;-87
2022/10/12 09:19:46;;;;;;;0.20;0.10;;;;;;;;;;5021514;28;20377;-87
2022/10/12 09:22:19;;;;;;;0.20;0.10;;;;;;;;;;5011954;28;20173;-88
2022/10/12 09:24:47;;;;;;;0.20;0.10;;;;;;;;;;5020590;28;20037;-88
2022/10/12 09:27:14;;;;;;;0.20;0.10;;;;;;;;;;5022395;28;20071;-89
2022/10/12 09:29:41;;;;;;;0.20;0.10;;;;;;;;;;5019494;28;20065;-88
2022/10/12 09:32:26;;;;;;;0.20;0.10;;;;;;;;;;5021691;28;20045;-89
2022/10/12 09:34:52;;;;;;;0.20;0.10;;;;;;;;;;5026449;28;20060;-88
2022/10/12 09:37:20;;;;;;;0.20;0.10;;;;;;;;;;5028129;28;20037;-88
2022/10/12 09:39:46;;;;;;;0.20;0.10;;;;;;;;;;5022845;28;20037;-88
2022/10/12 09:42:13;;;;;;;0.20;0.10;;;;;;;;;;5024754;28;20044;-89
2022/10/12 09:44:42;;;;;;;0.20;0.10;;;;;;;;;;5022725;28;20095;-89
2022/10/12 09:47:23;;;;;;;0.20;0.10;;;;;;;;;;5026921;28;20088;-87
2022/10/12 09:49:52;;;;;;;0.20;0.10;;;;;;;;;;5026159;28;20049;-89
2022/10/12 09:52:22;;;;;;;0.20;0.10;;;;;;;;;;5028927;28;20040;-90
2022/10/12 09:54:51;;;;;;;2.33;0.10;;;;;;;;;;5024394;28;20043;-88
2022/10/12 09:57:22;;;;;;;0.20;0.10;;;;;;;;;;5026719;28;20037;-90
2022/10/12 09:59:48;;;;;;;0.20;0.10;;;;;;;;;;5028133;28;20069;-88
2022/10/12 10:02:26;;;;;;;0.20;0.10;;;;;;;;;;5009283;28;20568;-88
2022/10/12 10:04:53;;;;;;;0.20;0.10;;;;;;;;;;5023846;28;20033;-88
2022/10/12 10:07:32;;;;;;;0.20;0.10;;;;;;;;;;5021471;28;20045;-89
2022/10/12 10:10:04;;;;;;;0.55;0.55;;;;;;;;;;5018904;28;20038;-88
2022/10/12 10:12:33;;;;;;;0.20;0.10;;;;;;;;;;5022842;28;20049;-89
2022/10/12 10:15:00;;;;;;;0.20;0.10;;;;;;;;;;5026836;28;20721;-90
2022/10/12 10:17:38;;;;;;;0.20;0.10;;;;;;;;;;5023180;22;20056;-87
2022/10/12 10:20:25;;;;;;;0.20;0.10;;;;;;;;;;5009730;28;20573;-83
2022/10/12 10:22:57;;;;;;;0.20;0.10;;;;;;;;;;5015591;28;20130;-83
2022/10/12 10:25:24;;;;;;;0.20;0.10;;;;;;;;;;5014751;28;20120;-83
2022/10/12 10:27:51;;;;;;;0.20;0.10;;;;;;;;;;5003467;28;20119;-83
2022/10/12 10:30:17;;;;;;;1.23;0.20;;;;;;;;;;4978770;28;20470;-82
2022/10/12 10:33:06;;;;;;;0.20;0.10;;;;;;;;;;5008400;28;20061;-82
2022/10/12 10:36:02;;;;;;;0.20;0.10;;;;;;;;;;5006725;28;20669;-87
2022/10/12 10:39:04;;;;;;;0.20;0.10;;;;;;;;;;5012196;28;20103;-86
2022/10/12 10:41:54;;;;;;;0.20;0.05;;;;;;;;;;5006114;28;20088;-83
2022/10/12 10:45:07;;;;;;;0.20;0.10;;;;;;;;;;4995381;28;21022;-83
2022/10/12 10:48:05;;;;;;;0.20;0.10;;;;;;;;;;5011513;28;20464;-84
2022/10/12 10:50:37;;;;;;;0.20;0.17;;;;;;;;;;4996433;28;20077;-83
2022/10/12 10:53:06;;;;;;;0.35;0.10;;;;;;;;;;4996145;28;20052;-83
2022/10/12 10:55:44;;;;;;;0.20;0.10;;;;;;;;;;5013368;28;20053;-83
2022/10/12 10:58:17;;;;;;;0.20;0.10;;;;;;;;;;4992869;28;20045;-84
2022/10/12 11:00:45;;;;;;;0.20;0.10;;;;;;;;;;4990043;28;20048;-83
2022/10/12 11:03:11;;;;;;;0.20;0.10;;;;;;;;;;4994968;28;20267;-83
2022/10/12 11:05:44;;;;;;;0.20;0.10;;;;;;;;;;4993005;28;20045;-83
2022/10/12 11:08:20;;;;;;;0.20;0.10;;;;;;;;;;4990284;28;20073;-82
2022/10/12 11:10:52;;;;;;;0.20;0.10;;;;;;;;;;4986746;28;20048;-83
2022/10/12 11:13:39;;;;;;;0.20;0.10;;;;;;;;;;4993108;28;20033;-83
2022/10/12 11:16:14;;;;;;;0.20;0.10;;;;;;;;;;4992220;28;20045;-84
2022/10/12 11:18:55;;;;;;;0.20;0.10;;;;;;;;;;4993453;28;20041;-82
2022/10/12 11:21:44;;;;;;;0.20;0.10;;;;;;;;;;5008827;28;20411;-82
2022/10/12 11:24:36;;;;;;;0.20;0.10;;;;;;;;;;4995617;28;20135;-83
2022/10/12 11:27:07;;;;;;;0.20;0.10;;;;;;;;;;4982462;28;20052;-83
2022/10/12 11:29:33;;;;;;;0.20;0.10;;;;;;;;;;4991972;28;20054;-83
2022/10/12 11:32:07;;;;;;;0.20;0.10;;;;;;;;;;5008451;28;20045;-82
2022/10/12 11:34:56;;;;;;;0.20;0.10;;;;;;;;;;5008495;28;20129;-83
2022/10/12 11:37:28;;;;;;;0.20;0.10;;;;;;;;;;5012772;28;20080;-82
2022/10/12 11:39:58;;;;;;;0.20;0.15;;;;;;;;;;4995010;28;20498;-84
2022/10/12 11:42:42;;;;;;;0.20;0.10;;;;;;;;;;4988204;28;20175;-83
2022/10/12 11:45:34;;;;;;;0.20;0.10;;;;;;;;;;5001966;28;20033;-80
2022/10/12 11:48:04;;;;;;;0.20;0.10;;;;;;;;;;4999523;28;20056;-83
2022/10/12 11:50:54;;;;;;;0.20;0.10;;;;;;;;;;4991770;28;20037;-83
2022/10/12 11:53:33;;;;;;;0.20;0.10;;;;;;;;;;4991599;28;20038;-81
2022/10/12 11:56:02;;;;;;;0.20;0.10;;;;;;;;;;4994283;28;20519;-84
2022/10/12 11:58:30;;;;;;;0.20;0.10;;;;;;;;;;4991820;28;20050;-84
2022/10/12 12:01:05;;;;;;;0.20;0.10;;;;;;;;;;4995847;28;20083;-81
2022/10/12 12:03:51;;;;;;;0.20;0.10;;;;;;;;;;4990280;28;20041;-84
2022/10/12 12:06:32;;;;;;;0.20;0.10;;;;;;;;;;4996057;28;20081;-83
2022/10/12 12:09:08;;;;;;;0.20;0.10;;;;;;;;;;5005651;28;20046;-83
2022/10/12 12:11:40;;;;;;;0.20;0.10;;;;;;;;;;4996844;28;20510;-83
2022/10/12 12:14:24;;;;;;;0.20;0.10;;;;;;;;;;4994938;28;20050;-82
2022/10/12 12:17:08;;;;;;;0.20;0.10;;;;;;;;;;5009637;28;20094;-85
2022/10/12 12:19:49;;;;;;;0.20;0.10;;;;;;;;;;5009897;28;20095;-84
2022/10/12 12:22:27;;;;;;;0.20;0.10;;;;;;;;;;4996357;28;20111;-85
2022/10/12 12:24:55;;;;;;;0.20;0.10;;;;;;;;;;4994537;28;20495;-82
2022/10/12 12:27:23;;;;;;;0.20;0.10;;;;;;;;;;5006535;28;20042;-81
2022/10/12 12:29:56;;;;;;;0.20;0.10;;;;;;;;;;5006717;28;20499;-85
2022/10/12 12:32:24;;;;;;;0.20;0.10;;;;;;;;;;4992623;28;20060;-83
2022/10/12 12:34:56;;;;;;;0.20;0.10;;;;;;;;;;5002857;28;20550;-85
2022/10/12 12:37:24;;;;;;;0.20;0.10;;;;;;;;;;4992899;28;20536;-84
2022/10/12 12:39:55;;;;;;;0.20;0.10;;;;;;;;;;4990575;28;20044;-81
2022/10/12 12:42:32;;;;;;;0.20;0.10;;;;;;;;;;5006414;28;20037;-85
2022/10/12 12:45:32;;;;;;;0.20;0.10;;;;;;;;;;5006699;28;20050;-83
2022/10/12 12:47:58;;;;;;;0.20;0.10;;;;;;;;;;4990375;28;20037;-83
2022/10/12 12:50:38;;;;;;;0.20;0.10;;;;;;;;;;4993615;28;20053;-83
2022/10/12 12:53:21;;;;;;;0.20;0.10;;;;;;;;;;4990689;28;20052;-83
2022/10/12 12:55:59;;;;;;;0.20;0.10;;;;;;;;;;5007794;28;20045;-83
2022/10/12 12:58:31;;;;;;;0.20;0.10;;;;;;;;;;4993651;28;20052;-82
2022/10/12 13:00:57;;;;;;;0.20;0.10;;;;;;;;;;4985348;28;20029;-84
2022/10/12 13:03:42;;;;;;;0.20;0.10;;;;;;;;;;5007176;28;20053;-83
2022/10/12 13:06:27;;;;;;;0.20;0.10;;;;;;;;;;5008563;28;20049;-82
2022/10/12 13:08:55;;;;;;;0.20;0.10;;;;;;;;;;4995190;28;20116;-83
2022/10/12 13:11:27;;;;;;;0.20;0.10;;;;;;;;;;4991211;28;20038;-80
2022/10/12 13:13:59;;;;;;;0.20;0.10;;;;;;;;;;4999566;28;20041;-82
2022/10/12 13:16:25;;;;;;;0.20;0.10;;;;;;;;;;4997183;28;20147;-80
2022/10/12 13:19:06;;;;;;;0.20;0.10;;;;;;;;;;5008161;28;20507;-84
2022/10/12 13:21:39;;;;;;;0.20;0.10;;;;;;;;;;4996427;28;20079;-83
2022/10/12 13:24:12;;;;;;;0.20;0.10;;;;;;;;;;5011209;28;20383;-83
2022/10/12 13:26:43;;;;;;;0.20;0.10;;;;;;;;;;4997912;28;20049;-83
2022/10/12 13:29:15;;;;;;;0.20;0.10;;;;;;;;;;4995765;28;20049;-82
2022/10/12 13:31:48;;;;;;;0.20;0.10;;;;;;;;;;4994323;28;20045;-84
2022/10/12 13:34:20;;;;;;;0.20;0.10;;;;;;;;;;5011331;28;20046;-83
2022/10/12 13:36:49;;;;;;;0.20;0.17;;;;;;;;;;4995206;28;20068;-83
2022/10/12 13:39:17;;;;;;;0.20;0.10;;;;;;;;;;4995150;28;20131;-83
2022/10/12 13:41:44;;;;;;;0.20;0.10;;;;;;;;;;5009436;28;20045;-84
2022/10/12 13:44:21;;;;;;;0.20;0.10;;;;;;;;;;5001337;28;20042;-83
2022/10/12 13:46:50;;;;;;;0.20;0.10;;;;;;;;;;5009102;28;20131;-82
2022/10/12 13:49:18;;;;;;;0.20;0.10;;;;;;;;;;4996543;28;20044;-83
2022/10/12 13:52:05;;;;;;;0.20;0.10;;;;;;;;;;5010225;28;21144;-86
2022/10/12 13:54:55;;;;;;;0.20;0.10;;;;;;;;;;5011520;28;20045;-84
2022/10/12 13:57:36;;;;;;;0.20;0.10;;;;;;;;;;4998435;28;20045;-83
2022/10/12 14:00:15;;;;;;;0.20;0.10;;;;;;;;;;5010747;28;20447;-83
2022/10/12 14:02:42;;;;;;;0.20;0.10;;;;;;;;;;5015692;28;20054;-83
2022/10/12 14:05:27;;;;;;;0.20;0.10;;;;;;;;;;4997346;28;20041;-83
2022/10/12 14:07:55;;;;;;;0.38;0.38;;;;;;;;;;5012032;28;20176;-83
2022/10/12 14:10:23;;;;;;;0.20;0.10;;;;;;;;;;5010716;28;20041;-82
2022/10/12 14:12:51;;;;;;;0.20;0.10;;;;;;;;;;4997294;28;20053;-86
2022/10/12 14:15:20;;;;;;;0.20;0.10;;;;;;;;;;4998612;28;20625;-85
2022/10/12 14:17:49;;;;;;;0.20;0.10;;;;;;;;;;4995646;28;20056;-82
2022/10/12 14:20:15;;;;;;;0.40;0.40;;;;;;;;;;5011915;28;20041;-84
2022/10/12 14:22:45;;;;;;;0.20;0.10;;;;;;;;;;4998930;28;20179;-83
2022/10/12 14:25:17;;;;;;;0.20;0.10;;;;;;;;;;5001725;28;20128;-82
2022/10/12 14:27:43;;;;;;;0.20;0.10;;;;;;;;;;5000138;28;20129;-82
2022/10/12 14:30:21;;;;;;;0.20;0.10;;;;;;;;;;4999796;28;20933;-80
2022/10/12 14:32:48;;;;;;;0.20;0.10;;;;;;;;;;4995991;28;20136;-82
2022/10/12 14:35:20;;;;;;;0.20;0.10;;;;;;;;;;5009929;28;20046;-82
2022/10/12 14:37:46;;;;;;;;;;;;;;;;;;4987733;28;20063;-83
2022/10/12 14:40:38;;;;;;;0.20;0.10;;;;;;;;;;5009584;28;20363;-84
2022/10/12 14:43:04;;;;;;;0.20;0.10;;;;;;;;;;5009945;28;20052;-83
2022/10/12 14:45:31;;;;;;;0.20;0.10;;;;;;;;;;4996293;28;20034;-83
2022/10/12 14:47:58;;;;;;;0.20;0.10;;;;;;;;;;5009648;28;20037;-82
2022/10/12 14:50:25;;;;;;;0.20;0.10;;;;;;;;;;5009876;28;20092;-81
2022/10/12 14:52:53;;;;;;;0.20;0.10;;;;;;;;;;4997107;28;20046;-83
2022/10/12 14:55:20;;;;;;;0.20;0.10;;;;;;;;;;4994360;28;20068;-82
2022/10/12 14:57:47;;;;;;;0.20;0.05;;;;;;;;;;5010191;28;20361;-82
2022/10/12 15:00:18;;;;;;;0.20;0.10;;;;;;;;;;4992966;28;20045;-82
2022/10/12 15:02:44;;;;;;;0.20;0.10;;;;;;;;;;5004334;28;20057;-82